sensor_id;sensor_type;location;lat;lon;timestamp;temperature;humidity
18426;DHT22;9340;48.756;9.226;2023-02-28T00:00:46;-0.90;99.90
18426;DHT22;9340;48.756;9.226;2023-02-28T00:03:13;-1.00;99.90
18426;DHT22;9340;48.756;9.226;2023-02-28T00:05:39;-1.00;99.90
18426;DHT22;9340;48.756;9.226;2023-02-28T00:08:07;-1.00;99.90
18426;DHT22;9340;48.756;9.226;2023-02-28T00:10:35;-1.00;99.90
18426;DHT22;9340;48.756;9.226;2023-02-28T00:13:04;-1.00;99.90
18426;DHT22;9340;48.756;9.226;2023-02-28T00:15:31;-1.10;99.90
18426;DHT22;9340;48.756;9.226;2023-02-28T00:17:58;-1.10;99.90
18426;DHT22;9340;48.756;9.226;2023-02-28T00:20:25;-1.10;99.90
18426;DHT22;9340;48.756;9.226;2023-02-28T00:22:53;-1.20;99.90
18426;DHT22;9340;48.756;9.226;2023-02-28T00:25:22;-1.20;99.90
18426;DHT22;9340;48.756;9.226;2023-02-28T00:27:50;-1.30;99.90
18426;DHT22;9340;48.756;9.226;2023-02-28T00:30:19;-1.30;99.90
18426;DHT22;9340;48.756;9.226;2023-02-28T00:32:46;-1.30;99.90
18426;DHT22;9340;48.756;9.226;2023-02-28T00:35:14;-1.40;99.90
18426;DHT22;9340;48.756;9.226;2023-02-28T00:37:41;-1.30;99.90
18426;DHT22;9340;48.756;9.226;2023-02-28T00:40:08;-1.30;99.90
18426;DHT22;9340;48.756;9.226;2023-02-28T00:42:37;-1.30;99.90
18426;DHT22;9340;48.756;9.226;2023-02-28T00:45:06;-1.30;99.90
18426;DHT22;9340;48.756;9.226;2023-02-28T00:47:33;-1.40;99.90
18426;DHT22;9340;48.756;9.226;2023-02-28T00:50:00;-1.40;99.90
18426;DHT22;9340;48.756;9.226;2023-02-28T00:52:27;-1.40;99.90
18426;DHT22;9340;48.756;9.226;2023-02-28T00:54:54;-1.40;99.90
18426;DHT22;9340;48.756;9.226;2023-02-28T00:57:21;-1.30;99.90
18426;DHT22;9340;48.756;9.226;2023-02-28T00:59:48;-1.40;99.90
18426;DHT22;9340;48.756;9.226;2023-02-28T01:02:16;-1.40;99.90
18426;DHT22;9340;48.756;9.226;2023-02-28T01:04:43;-1.50;99.90
18426;DHT22;9340;48.756;9.226;2023-02-28T01:07:10;-1.60;99.90
18426;DHT22;9340;48.756;9.226;2023-02-28T01:09:36;-1.50;99.90
18426;DHT22;9340;48.756;9.226;2023-02-28T01:12:03;-1.50;99.90
18426;DHT22;9340;48.756;9.226;2023-02-28T01:14:30;-1.50;99.90
18426;DHT22;9340;48.756;9.226;2023-02-28T01:16:57;-1.40;99.90
18426;DHT22;9340;48.756;9.226;2023-02-28T01:19:25;-1.40;99.90
18426;DHT22;9340;48.756;9.226;2023-02-28T01:21:52;-1.50;99.90
18426;DHT22;9340;48.756;9.226;2023-02-28T01:24:18;-1.50;99.90
18426;DHT22;9340;48.756;9.226;2023-02-28T01:26:45;-1.60;99.90
18426;DHT22;9340;48.756;9.226;2023-02-28T01:29:12;-1.60;99.90
18426;DHT22;9340;48.756;9.226;2023-02-28T01:31:38;-1.60;99.90
18426;DHT22;9340;48.756;9.226;2023-02-28T01:34:05;-1.50;99.90
18426;DHT22;9340;48.756;9.226;2023-02-28T01:36:33;-1.60;99.90
18426;DHT22;9340;48.756;9.226;2023-02-28T01:39:02;-1.50;99.90
18426;DHT22;9340;48.756;9.226;2023-02-28T01:41:30;-1.50;99.90
18426;DHT22;9340;48.756;9.226;2023-02-28T01:44:00;-1.60;99.90
18426;DHT22;9340;48.756;9.226;2023-02-28T01:46:29;-1.60;99.90
18426;DHT22;9340;48.756;9.226;2023-02-28T01:49:04;-1.50;99.90
18426;DHT22;9340;48.756;9.226;2023-02-28T01:51:37;-1.40;99.90
18426;DHT22;9340;48.756;9.226;2023-02-28T01:54:08;-1.40;99.90
18426;DHT22;9340;48.756;9.226;2023-02-28T01:56:41;-1.30;99.90
18426;DHT22;9340;48.756;9.226;2023-02-28T01:59:09;-1.30;99.90
18426;DHT22;9340;48.756;9.226;2023-02-28T02:01:36;-1.30;99.90
18426;DHT22;9340;48.756;9.226;2023-02-28T02:04:04;-1.40;99.90
18426;DHT22;9340;48.756;9.226;2023-02-28T02:06:38;-1.30;99.90
18426;DHT22;9340;48.756;9.226;2023-02-28T02:09:05;-1.40;99.90
18426;DHT22;9340;48.756;9.226;2023-02-28T02:11:34;-1.30;99.90
18426;DHT22;9340;48.756;9.226;2023-02-28T02:14:11;-1.20;99.90
18426;DHT22;9340;48.756;9.226;2023-02-28T02:16:50;-1.20;99.90
18426;DHT22;9340;48.756;9.226;2023-02-28T02:22:43;-1.20;99.90
18426;DHT22;9340;48.756;9.226;2023-02-28T02:25:23;-1.20;99.90
18426;DHT22;9340;48.756;9.226;2023-02-28T02:31:03;-1.10;99.90
18426;DHT22;9340;48.756;9.226;2023-02-28T02:34:07;-1.00;99.90
18426;DHT22;9340;48.756;9.226;2023-02-28T02:36:39;-1.00;99.90
18426;DHT22;9340;48.756;9.226;2023-02-28T02:39:16;-0.90;99.90
18426;DHT22;9340;48.756;9.226;2023-02-28T02:41:47;-0.90;99.90
18426;DHT22;9340;48.756;9.226;2023-02-28T02:44:19;-0.90;99.90
18426;DHT22;9340;48.756;9.226;2023-02-28T02:46:48;-0.80;99.90
18426;DHT22;9340;48.756;9.226;2023-02-28T02:49:21;-0.60;99.90
18426;DHT22;9340;48.756;9.226;2023-02-28T02:51:49;-0.70;99.90
18426;DHT22;9340;48.756;9.226;2023-02-28T02:54:22;-0.70;99.90
18426;DHT22;9340;48.756;9.226;2023-02-28T02:56:50;-0.70;99.90
18426;DHT22;9340;48.756;9.226;2023-02-28T02:59:21;-0.80;99.90
18426;DHT22;9340;48.756;9.226;2023-02-28T03:01:51;-0.80;99.90
18426;DHT22;9340;48.756;9.226;2023-02-28T03:04:22;-0.80;99.90
18426;DHT22;9340;48.756;9.226;2023-02-28T03:06:51;-0.70;99.90
18426;DHT22;9340;48.756;9.226;2023-02-28T03:09:20;-0.80;99.90
18426;DHT22;9340;48.756;9.226;2023-02-28T03:11:47;-0.70;99.90
18426;DHT22;9340;48.756;9.226;2023-02-28T03:14:25;-0.70;99.90
18426;DHT22;9340;48.756;9.226;2023-02-28T03:17:03;-0.60;99.90
18426;DHT22;9340;48.756;9.226;2023-02-28T03:19:55;-0.60;99.90
18426;DHT22;9340;48.756;9.226;2023-02-28T03:22:43;-0.50;99.90
18426;DHT22;9340;48.756;9.226;2023-02-28T03:25:19;-0.60;99.90
18426;DHT22;9340;48.756;9.226;2023-02-28T03:27:54;-0.70;99.90
18426;DHT22;9340;48.756;9.226;2023-02-28T03:30:24;-0.80;99.90
18426;DHT22;9340;48.756;9.226;2023-02-28T03:32:57;-0.70;99.90
18426;DHT22;9340;48.756;9.226;2023-02-28T03:35:28;-0.60;99.90
18426;DHT22;9340;48.756;9.226;2023-02-28T03:38:03;-0.50;99.90
18426;DHT22;9340;48.756;9.226;2023-02-28T03:40:33;-0.50;99.90
18426;DHT22;9340;48.756;9.226;2023-02-28T03:43:04;-0.40;99.90
18426;DHT22;9340;48.756;9.226;2023-02-28T03:45:36;-0.40;99.90
18426;DHT22;9340;48.756;9.226;2023-02-28T03:48:09;-0.50;99.90
18426;DHT22;9340;48.756;9.226;2023-02-28T03:50:41;-0.50;99.90
18426;DHT22;9340;48.756;9.226;2023-02-28T03:53:12;-0.40;99.90
18426;DHT22;9340;48.756;9.226;2023-02-28T03:55:42;-0.30;99.90
18426;DHT22;9340;48.756;9.226;2023-02-28T03:58:14;-0.20;99.90
18426;DHT22;9340;48.756;9.226;2023-02-28T04:00:45;-0.20;99.90
18426;DHT22;9340;48.756;9.226;2023-02-28T04:03:13;-0.20;99.90
18426;DHT22;9340;48.756;9.226;2023-02-28T04:05:50;-0.20;99.90
18426;DHT22;9340;48.756;9.226;2023-02-28T04:08:17;-0.20;99.90
18426;DHT22;9340;48.756;9.226;2023-02-28T04:10:46;-0.20;99.90
18426;DHT22;9340;48.756;9.226;2023-02-28T04:13:14;-0.20;99.90
18426;DHT22;9340;48.756;9.226;2023-02-28T04:15:41;-0.20;99.90
18426;DHT22;9340;48.756;9.226;2023-02-28T04:18:08;-0.10;99.90
18426;DHT22;9340;48.756;9.226;2023-02-28T04:20:34;0.00;99.90
18426;DHT22;9340;48.756;9.226;2023-02-28T04:23:02;0.00;99.90
18426;DHT22;9340;48.756;9.226;2023-02-28T04:25:29;0.10;99.90
18426;DHT22;9340;48.756;9.226;2023-02-28T04:27:56;0.00;99.90
18426;DHT22;9340;48.756;9.226;2023-02-28T04:30:22;0.00;99.90
18426;DHT22;9340;48.756;9.226;2023-02-28T04:32:49;-0.10;99.90
18426;DHT22;9340;48.756;9.226;2023-02-28T04:35:16;0.00;99.90
18426;DHT22;9340;48.756;9.226;2023-02-28T04:37:42;0.00;99.90
18426;DHT22;9340;48.756;9.226;2023-02-28T04:40:12;0.00;99.90
18426;DHT22;9340;48.756;9.226;2023-02-28T04:42:39;0.00;99.90
18426;DHT22;9340;48.756;9.226;2023-02-28T04:45:06;-0.10;99.90
18426;DHT22;9340;48.756;9.226;2023-02-28T04:47:35;-0.10;99.90
18426;DHT22;9340;48.756;9.226;2023-02-28T04:50:02;-0.10;99.90
18426;DHT22;9340;48.756;9.226;2023-02-28T04:52:29;0.00;99.90
18426;DHT22;9340;48.756;9.226;2023-02-28T04:54:58;0.00;99.90
18426;DHT22;9340;48.756;9.226;2023-02-28T04:57:26;0.10;99.90
18426;DHT22;9340;48.756;9.226;2023-02-28T04:59:53;0.00;99.90
18426;DHT22;9340;48.756;9.226;2023-02-28T05:02:20;-0.10;99.90
18426;DHT22;9340;48.756;9.226;2023-02-28T05:04:47;-0.10;99.90
18426;DHT22;9340;48.756;9.226;2023-02-28T05:07:14;0.00;99.90
18426;DHT22;9340;48.756;9.226;2023-02-28T05:09:41;0.10;99.90
18426;DHT22;9340;48.756;9.226;2023-02-28T05:12:08;0.10;99.90
18426;DHT22;9340;48.756;9.226;2023-02-28T05:14:37;0.20;99.90
18426;DHT22;9340;48.756;9.226;2023-02-28T05:17:03;0.00;99.90
18426;DHT22;9340;48.756;9.226;2023-02-28T05:19:30;0.00;99.90
18426;DHT22;9340;48.756;9.226;2023-02-28T05:21:57;0.00;99.90
18426;DHT22;9340;48.756;9.226;2023-02-28T05:24:24;0.10;99.90
18426;DHT22;9340;48.756;9.226;2023-02-28T05:26:53;0.20;99.90
18426;DHT22;9340;48.756;9.226;2023-02-28T05:29:20;0.10;99.90
18426;DHT22;9340;48.756;9.226;2023-02-28T05:31:48;0.20;99.90
18426;DHT22;9340;48.756;9.226;2023-02-28T05:34:15;0.20;99.90
18426;DHT22;9340;48.756;9.226;2023-02-28T05:36:42;0.20;99.90
18426;DHT22;9340;48.756;9.226;2023-02-28T05:39:09;0.10;99.90
18426;DHT22;9340;48.756;9.226;2023-02-28T05:41:39;0.10;99.90
18426;DHT22;9340;48.756;9.226;2023-02-28T05:44:06;0.20;99.90
18426;DHT22;9340;48.756;9.226;2023-02-28T05:46:33;0.20;99.90
18426;DHT22;9340;48.756;9.226;2023-02-28T05:49:01;0.10;99.90
18426;DHT22;9340;48.756;9.226;2023-02-28T05:51:28;0.10;99.90
18426;DHT22;9340;48.756;9.226;2023-02-28T05:53:58;0.20;99.90
18426;DHT22;9340;48.756;9.226;2023-02-28T05:56:25;0.30;99.90
18426;DHT22;9340;48.756;9.226;2023-02-28T05:58:52;0.30;99.90
18426;DHT22;9340;48.756;9.226;2023-02-28T06:01:22;0.30;99.90
18426;DHT22;9340;48.756;9.226;2023-02-28T06:03:49;0.30;99.90
18426;DHT22;9340;48.756;9.226;2023-02-28T06:06:17;0.30;99.90
18426;DHT22;9340;48.756;9.226;2023-02-28T06:08:44;0.30;99.90
18426;DHT22;9340;48.756;9.226;2023-02-28T06:11:11;0.40;99.90
18426;DHT22;9340;48.756;9.226;2023-02-28T06:13:38;0.40;99.90
18426;DHT22;9340;48.756;9.226;2023-02-28T06:16:05;0.40;99.90
18426;DHT22;9340;48.756;9.226;2023-02-28T06:18:32;0.50;99.90
18426;DHT22;9340;48.756;9.226;2023-02-28T06:20:59;0.30;99.90
18426;DHT22;9340;48.756;9.226;2023-02-28T06:23:27;0.40;99.90
18426;DHT22;9340;48.756;9.226;2023-02-28T06:25:54;0.20;99.90
18426;DHT22;9340;48.756;9.226;2023-02-28T06:28:24;0.20;99.90
18426;DHT22;9340;48.756;9.226;2023-02-28T06:30:51;0.20;99.90
18426;DHT22;9340;48.756;9.226;2023-02-28T06:33:18;0.20;99.90
18426;DHT22;9340;48.756;9.226;2023-02-28T06:35:46;0.30;99.90
18426;DHT22;9340;48.756;9.226;2023-02-28T06:38:13;0.20;99.90
18426;DHT22;9340;48.756;9.226;2023-02-28T06:40:41;0.20;99.90
18426;DHT22;9340;48.756;9.226;2023-02-28T06:43:09;0.30;99.90
18426;DHT22;9340;48.756;9.226;2023-02-28T06:45:41;0.30;99.90
18426;DHT22;9340;48.756;9.226;2023-02-28T06:48:08;0.30;99.90
18426;DHT22;9340;48.756;9.226;2023-02-28T06:50:35;0.30;99.90
18426;DHT22;9340;48.756;9.226;2023-02-28T06:53:03;0.20;99.90
18426;DHT22;9340;48.756;9.226;2023-02-28T06:55:29;0.20;99.90
18426;DHT22;9340;48.756;9.226;2023-02-28T06:57:58;0.30;99.90
18426;DHT22;9340;48.756;9.226;2023-02-28T07:00:25;0.40;99.90
18426;DHT22;9340;48.756;9.226;2023-02-28T07:02:52;0.40;99.90
18426;DHT22;9340;48.756;9.226;2023-02-28T07:05:20;0.50;99.90
18426;DHT22;9340;48.756;9.226;2023-02-28T07:07:47;0.50;99.90
18426;DHT22;9340;48.756;9.226;2023-02-28T07:10:14;0.60;99.90
18426;DHT22;9340;48.756;9.226;2023-02-28T07:12:42;0.60;99.90
18426;DHT22;9340;48.756;9.226;2023-02-28T07:15:11;0.50;99.90
18426;DHT22;9340;48.756;9.226;2023-02-28T07:17:38;0.50;99.90
18426;DHT22;9340;48.756;9.226;2023-02-28T07:20:05;0.50;99.90
18426;DHT22;9340;48.756;9.226;2023-02-28T07:22:32;0.50;99.90
18426;DHT22;9340;48.756;9.226;2023-02-28T07:24:59;0.60;99.90
18426;DHT22;9340;48.756;9.226;2023-02-28T07:27:25;0.60;99.90
18426;DHT22;9340;48.756;9.226;2023-02-28T07:29:53;0.80;99.90
18426;DHT22;9340;48.756;9.226;2023-02-28T07:32:21;0.80;99.90
18426;DHT22;9340;48.756;9.226;2023-02-28T07:34:48;0.80;99.90
18426;DHT22;9340;48.756;9.226;2023-02-28T07:37:14;0.70;99.90
18426;DHT22;9340;48.756;9.226;2023-02-28T07:39:42;0.70;99.90
18426;DHT22;9340;48.756;9.226;2023-02-28T07:42:09;0.80;99.90
18426;DHT22;9340;48.756;9.226;2023-02-28T07:44:37;0.80;99.90
18426;DHT22;9340;48.756;9.226;2023-02-28T07:47:06;0.70;99.90
18426;DHT22;9340;48.756;9.226;2023-02-28T07:49:35;0.70;99.90
18426;DHT22;9340;48.756;9.226;2023-02-28T07:52:02;0.70;99.90
18426;DHT22;9340;48.756;9.226;2023-02-28T07:54:29;0.80;99.90
18426;DHT22;9340;48.756;9.226;2023-02-28T07:56:56;0.90;99.90
18426;DHT22;9340;48.756;9.226;2023-02-28T07:59:22;0.90;99.90
18426;DHT22;9340;48.756;9.226;2023-02-28T08:01:49;1.00;99.90
18426;DHT22;9340;48.756;9.226;2023-02-28T08:04:16;1.20;99.90
18426;DHT22;9340;48.756;9.226;2023-02-28T08:06:44;1.20;99.90
18426;DHT22;9340;48.756;9.226;2023-02-28T08:09:11;1.10;99.90
18426;DHT22;9340;48.756;9.226;2023-02-28T08:11:38;1.20;99.90
18426;DHT22;9340;48.756;9.226;2023-02-28T08:14:05;1.20;99.90
18426;DHT22;9340;48.756;9.226;2023-02-28T08:16:32;1.30;99.90
18426;DHT22;9340;48.756;9.226;2023-02-28T08:18:58;1.20;99.90
18426;DHT22;9340;48.756;9.226;2023-02-28T08:21:25;1.20;99.90
18426;DHT22;9340;48.756;9.226;2023-02-28T08:23:53;1.20;99.90
18426;DHT22;9340;48.756;9.226;2023-02-28T08:26:20;1.20;99.90
18426;DHT22;9340;48.756;9.226;2023-02-28T08:28:47;1.40;99.90
18426;DHT22;9340;48.756;9.226;2023-02-28T08:31:15;1.50;99.90
18426;DHT22;9340;48.756;9.226;2023-02-28T08:33:43;1.40;99.90
18426;DHT22;9340;48.756;9.226;2023-02-28T08:36:11;1.40;99.90
18426;DHT22;9340;48.756;9.226;2023-02-28T08:38:38;1.60;99.90
18426;DHT22;9340;48.756;9.226;2023-02-28T08:41:07;1.40;99.90
18426;DHT22;9340;48.756;9.226;2023-02-28T08:43:35;1.40;99.90
18426;DHT22;9340;48.756;9.226;2023-02-28T08:46:03;1.40;99.90
18426;DHT22;9340;48.756;9.226;2023-02-28T08:48:32;1.50;99.90
18426;DHT22;9340;48.756;9.226;2023-02-28T08:51:00;1.50;99.90
18426;DHT22;9340;48.756;9.226;2023-02-28T08:53:27;1.50;99.90
18426;DHT22;9340;48.756;9.226;2023-02-28T08:55:59;1.60;99.90
18426;DHT22;9340;48.756;9.226;2023-02-28T08:58:27;1.70;99.90
18426;DHT22;9340;48.756;9.226;2023-02-28T09:00:54;1.70;99.90
18426;DHT22;9340;48.756;9.226;2023-02-28T09:03:22;1.80;99.90
18426;DHT22;9340;48.756;9.226;2023-02-28T09:05:55;1.80;99.90
18426;DHT22;9340;48.756;9.226;2023-02-28T09:08:22;2.00;99.90
18426;DHT22;9340;48.756;9.226;2023-02-28T09:10:48;2.20;99.90
18426;DHT22;9340;48.756;9.226;2023-02-28T09:13:15;2.30;99.90
18426;DHT22;9340;48.756;9.226;2023-02-28T09:15:43;2.20;99.90
18426;DHT22;9340;48.756;9.226;2023-02-28T09:18:10;2.10;99.90
18426;DHT22;9340;48.756;9.226;2023-02-28T09:20:38;1.90;99.90
18426;DHT22;9340;48.756;9.226;2023-02-28T09:23:05;2.10;99.90
18426;DHT22;9340;48.756;9.226;2023-02-28T09:25:32;2.30;99.90
18426;DHT22;9340;48.756;9.226;2023-02-28T09:27:59;2.40;99.90
18426;DHT22;9340;48.756;9.226;2023-02-28T09:30:26;2.40;99.90
18426;DHT22;9340;48.756;9.226;2023-02-28T09:32:55;2.40;99.90
18426;DHT22;9340;48.756;9.226;2023-02-28T09:35:23;2.70;99.90
18426;DHT22;9340;48.756;9.226;2023-02-28T09:37:51;2.60;99.90
18426;DHT22;9340;48.756;9.226;2023-02-28T09:40:19;2.70;99.90
18426;DHT22;9340;48.756;9.226;2023-02-28T09:42:48;2.90;99.90
18426;DHT22;9340;48.756;9.226;2023-02-28T09:45:24;3.00;99.90
18426;DHT22;9340;48.756;9.226;2023-02-28T09:47:56;3.10;99.90
18426;DHT22;9340;48.756;9.226;2023-02-28T09:50:30;3.00;99.90
18426;DHT22;9340;48.756;9.226;2023-02-28T09:53:02;2.80;99.90
18426;DHT22;9340;48.756;9.226;2023-02-28T09:55:33;2.80;99.90
18426;DHT22;9340;48.756;9.226;2023-02-28T09:58:04;2.90;99.90
18426;DHT22;9340;48.756;9.226;2023-02-28T10:00:33;3.00;99.90
18426;DHT22;9340;48.756;9.226;2023-02-28T10:03:20;3.10;99.90
18426;DHT22;9340;48.756;9.226;2023-02-28T10:05:52;3.30;99.90
18426;DHT22;9340;48.756;9.226;2023-02-28T10:08:23;3.40;99.90
18426;DHT22;9340;48.756;9.226;2023-02-28T10:10:54;3.70;99.90
18426;DHT22;9340;48.756;9.226;2023-02-28T10:13:26;4.00;99.90
18426;DHT22;9340;48.756;9.226;2023-02-28T10:15:56;4.10;99.90
18426;DHT22;9340;48.756;9.226;2023-02-28T10:18:30;4.10;99.90
18426;DHT22;9340;48.756;9.226;2023-02-28T10:20:57;4.10;99.90
18426;DHT22;9340;48.756;9.226;2023-02-28T10:23:28;4.10;99.90
18426;DHT22;9340;48.756;9.226;2023-02-28T10:25:59;4.10;99.90
18426;DHT22;9340;48.756;9.226;2023-02-28T10:28:29;4.10;99.90
18426;DHT22;9340;48.756;9.226;2023-02-28T10:30:57;4.10;99.90
18426;DHT22;9340;48.756;9.226;2023-02-28T10:33:29;4.40;99.90
18426;DHT22;9340;48.756;9.226;2023-02-28T10:35:56;4.40;99.90
18426;DHT22;9340;48.756;9.226;2023-02-28T10:38:25;4.50;99.90
18426;DHT22;9340;48.756;9.226;2023-02-28T10:41:04;4.70;99.90
18426;DHT22;9340;48.756;9.226;2023-02-28T10:43:33;4.90;99.90
18426;DHT22;9340;48.756;9.226;2023-02-28T10:46:02;5.00;99.90
18426;DHT22;9340;48.756;9.226;2023-02-28T10:48:34;5.20;99.90
18426;DHT22;9340;48.756;9.226;2023-02-28T10:51:01;5.00;99.90
18426;DHT22;9340;48.756;9.226;2023-02-28T10:53:33;5.00;99.90
18426;DHT22;9340;48.756;9.226;2023-02-28T10:56:02;5.20;99.90
18426;DHT22;9340;48.756;9.226;2023-02-28T10:58:31;5.10;99.90
18426;DHT22;9340;48.756;9.226;2023-02-28T11:00:59;5.30;99.90
18426;DHT22;9340;48.756;9.226;2023-02-28T11:03:32;5.60;99.90
18426;DHT22;9340;48.756;9.226;2023-02-28T11:06:05;5.60;99.90
18426;DHT22;9340;48.756;9.226;2023-02-28T11:08:33;5.70;99.90
18426;DHT22;9340;48.756;9.226;2023-02-28T11:11:04;5.60;99.90
18426;DHT22;9340;48.756;9.226;2023-02-28T11:13:33;4.90;99.90
18426;DHT22;9340;48.756;9.226;2023-02-28T11:16:03;4.40;99.90
18426;DHT22;9340;48.756;9.226;2023-02-28T11:18:36;4.00;99.90
18426;DHT22;9340;48.756;9.226;2023-02-28T11:21:05;3.60;99.90
18426;DHT22;9340;48.756;9.226;2023-02-28T11:23:34;3.50;99.90
18426;DHT22;9340;48.756;9.226;2023-02-28T11:26:03;3.70;99.90
18426;DHT22;9340;48.756;9.226;2023-02-28T11:28:36;3.90;99.90
18426;DHT22;9340;48.756;9.226;2023-02-28T11:31:15;4.30;99.90
18426;DHT22;9340;48.756;9.226;2023-02-28T11:33:48;4.60;99.90
18426;DHT22;9340;48.756;9.226;2023-02-28T11:36:19;4.40;99.90
18426;DHT22;9340;48.756;9.226;2023-02-28T11:38:47;4.40;99.90
18426;DHT22;9340;48.756;9.226;2023-02-28T11:41:26;4.80;99.90
18426;DHT22;9340;48.756;9.226;2023-02-28T11:44:04;5.10;99.90
18426;DHT22;9340;48.756;9.226;2023-02-28T11:46:36;5.10;99.90
18426;DHT22;9340;48.756;9.226;2023-02-28T11:49:19;5.00;99.90
18426;DHT22;9340;48.756;9.226;2023-02-28T11:51:54;4.90;99.90
18426;DHT22;9340;48.756;9.226;2023-02-28T11:57:28;5.30;99.90
18426;DHT22;9340;48.756;9.226;2023-02-28T12:00:00;5.40;99.90
18426;DHT22;9340;48.756;9.226;2023-02-28T12:02:35;5.40;99.90
18426;DHT22;9340;48.756;9.226;2023-02-28T12:05:20;5.40;99.90
18426;DHT22;9340;48.756;9.226;2023-02-28T12:07:59;5.20;99.90
18426;DHT22;9340;48.756;9.226;2023-02-28T12:10:37;5.10;99.90
18426;DHT22;9340;48.756;9.226;2023-02-28T12:13:15;5.00;99.90
18426;DHT22;9340;48.756;9.226;2023-02-28T12:18:56;5.40;99.90
18426;DHT22;9340;48.756;9.226;2023-02-28T12:21:33;5.70;99.90
18426;DHT22;9340;48.756;9.226;2023-02-28T12:24:39;6.00;99.90
18426;DHT22;9340;48.756;9.226;2023-02-28T12:27:12;6.30;99.90
18426;DHT22;9340;48.756;9.226;2023-02-28T12:29:45;6.50;99.90
18426;DHT22;9340;48.756;9.226;2023-02-28T12:32:18;6.40;99.90
18426;DHT22;9340;48.756;9.226;2023-02-28T12:34:50;6.10;99.90
18426;DHT22;9340;48.756;9.226;2023-02-28T12:37:25;5.60;99.90
18426;DHT22;9340;48.756;9.226;2023-02-28T12:39:59;5.50;99.90
18426;DHT22;9340;48.756;9.226;2023-02-28T12:42:30;5.70;99.90
18426;DHT22;9340;48.756;9.226;2023-02-28T12:45:01;5.80;99.90
18426;DHT22;9340;48.756;9.226;2023-02-28T12:47:28;5.70;99.90
18426;DHT22;9340;48.756;9.226;2023-02-28T12:49:59;5.70;99.90
18426;DHT22;9340;48.756;9.226;2023-02-28T12:52:34;5.80;99.90
18426;DHT22;9340;48.756;9.226;2023-02-28T12:55:05;5.50;99.90
18426;DHT22;9340;48.756;9.226;2023-02-28T12:57:37;5.60;99.90
18426;DHT22;9340;48.756;9.226;2023-02-28T13:00:11;5.70;99.90
18426;DHT22;9340;48.756;9.226;2023-02-28T13:03:10;5.70;99.90
18426;DHT22;9340;48.756;9.226;2023-02-28T13:09:11;6.10;99.90
18426;DHT22;9340;48.756;9.226;2023-02-28T13:11:41;6.00;99.90
18426;DHT22;9340;48.756;9.226;2023-02-28T13:14:23;5.70;99.90
18426;DHT22;9340;48.756;9.226;2023-02-28T13:16:55;5.70;99.90
18426;DHT22;9340;48.756;9.226;2023-02-28T13:19:23;5.80;99.90
18426;DHT22;9340;48.756;9.226;2023-02-28T13:21:51;5.90;99.90
18426;DHT22;9340;48.756;9.226;2023-02-28T13:27:33;5.80;99.90
18426;DHT22;9340;48.756;9.226;2023-02-28T13:30:00;6.00;99.90
18426;DHT22;9340;48.756;9.226;2023-02-28T13:32:35;6.10;99.90
18426;DHT22;9340;48.756;9.226;2023-02-28T13:35:37;6.30;99.90
18426;DHT22;9340;48.756;9.226;2023-02-28T13:44:17;6.30;99.90
18426;DHT22;9340;48.756;9.226;2023-02-28T13:47:24;6.40;99.90
18426;DHT22;9340;48.756;9.226;2023-02-28T13:49:54;6.50;99.90
18426;DHT22;9340;48.756;9.226;2023-02-28T13:52:24;6.40;99.90
18426;DHT22;9340;48.756;9.226;2023-02-28T13:55:21;6.50;99.90
18426;DHT22;9340;48.756;9.226;2023-02-28T13:58:01;6.50;99.90
18426;DHT22;9340;48.756;9.226;2023-02-28T14:00:39;6.50;99.90
18426;DHT22;9340;48.756;9.226;2023-02-28T14:03:23;6.40;99.90
18426;DHT22;9340;48.756;9.226;2023-02-28T14:06:08;6.40;99.90
18426;DHT22;9340;48.756;9.226;2023-02-28T14:08:35;6.40;99.90
18426;DHT22;9340;48.756;9.226;2023-02-28T14:11:04;6.60;99.90
18426;DHT22;9340;48.756;9.226;2023-02-28T14:13:40;6.60;99.90
18426;DHT22;9340;48.756;9.226;2023-02-28T14:16:12;6.50;99.90
18426;DHT22;9340;48.756;9.226;2023-02-28T14:18:42;6.50;99.90
18426;DHT22;9340;48.756;9.226;2023-02-28T14:21:21;6.50;99.90
18426;DHT22;9340;48.756;9.226;2023-02-28T14:24:16;6.50;99.90
18426;DHT22;9340;48.756;9.226;2023-02-28T14:27:05;6.40;99.90
18426;DHT22;9340;48.756;9.226;2023-02-28T14:29:51;6.50;99.90
18426;DHT22;9340;48.756;9.226;2023-02-28T14:32:28;6.50;99.90
18426;DHT22;9340;48.756;9.226;2023-02-28T14:35:03;6.30;99.90
18426;DHT22;9340;48.756;9.226;2023-02-28T14:37:38;6.40;99.90
18426;DHT22;9340;48.756;9.226;2023-02-28T14:40:12;6.40;99.90
18426;DHT22;9340;48.756;9.226;2023-02-28T14:42:47;6.40;99.90
18426;DHT22;9340;48.756;9.226;2023-02-28T14:45:18;6.30;99.90
18426;DHT22;9340;48.756;9.226;2023-02-28T14:47:48;6.20;99.90
18426;DHT22;9340;48.756;9.226;2023-02-28T14:50:19;6.30;99.90
18426;DHT22;9340;48.756;9.226;2023-02-28T14:52:46;6.30;99.90
18426;DHT22;9340;48.756;9.226;2023-02-28T14:55:15;6.20;99.90
18426;DHT22;9340;48.756;9.226;2023-02-28T14:57:51;6.20;99.90
18426;DHT22;9340;48.756;9.226;2023-02-28T15:00:22;6.20;99.90
18426;DHT22;9340;48.756;9.226;2023-02-28T15:02:51;6.20;99.90
18426;DHT22;9340;48.756;9.226;2023-02-28T15:05:29;6.20;99.90
18426;DHT22;9340;48.756;9.226;2023-02-28T15:08:10;6.10;99.90
18426;DHT22;9340;48.756;9.226;2023-02-28T15:10:39;6.10;99.90
18426;DHT22;9340;48.756;9.226;2023-02-28T15:13:10;5.90;99.90
18426;DHT22;9340;48.756;9.226;2023-02-28T15:15:43;6.00;99.90
18426;DHT22;9340;48.756;9.226;2023-02-28T15:18:20;6.00;99.90
18426;DHT22;9340;48.756;9.226;2023-02-28T15:20:51;6.00;99.90
18426;DHT22;9340;48.756;9.226;2023-02-28T15:23:18;5.90;99.90
18426;DHT22;9340;48.756;9.226;2023-02-28T15:25:47;5.90;99.90
18426;DHT22;9340;48.756;9.226;2023-02-28T15:28:16;6.00;99.90
18426;DHT22;9340;48.756;9.226;2023-02-28T15:30:55;5.80;99.90
18426;DHT22;9340;48.756;9.226;2023-02-28T15:33:25;5.80;99.90
18426;DHT22;9340;48.756;9.226;2023-02-28T15:36:04;5.80;99.90
18426;DHT22;9340;48.756;9.226;2023-02-28T15:38:34;5.80;99.90
18426;DHT22;9340;48.756;9.226;2023-02-28T15:41:00;5.80;99.90
18426;DHT22;9340;48.756;9.226;2023-02-28T15:43:29;5.80;99.90
18426;DHT22;9340;48.756;9.226;2023-02-28T15:46:00;5.80;99.90
18426;DHT22;9340;48.756;9.226;2023-02-28T15:48:31;5.90;99.90
18426;DHT22;9340;48.756;9.226;2023-02-28T15:51:05;5.80;99.90
18426;DHT22;9340;48.756;9.226;2023-02-28T15:53:34;5.70;99.90
18426;DHT22;9340;48.756;9.226;2023-02-28T15:56:04;5.70;99.90
18426;DHT22;9340;48.756;9.226;2023-02-28T15:58:34;5.60;99.90
18426;DHT22;9340;48.756;9.226;2023-02-28T16:01:07;5.60;99.90
18426;DHT22;9340;48.756;9.226;2023-02-28T16:03:39;5.50;99.90
18426;DHT22;9340;48.756;9.226;2023-02-28T16:06:09;5.50;99.90
18426;DHT22;9340;48.756;9.226;2023-02-28T16:08:46;5.40;99.90
18426;DHT22;9340;48.756;9.226;2023-02-28T16:11:14;5.40;99.90
18426;DHT22;9340;48.756;9.226;2023-02-28T16:13:41;5.30;99.90
18426;DHT22;9340;48.756;9.226;2023-02-28T16:16:07;5.20;99.90
18426;DHT22;9340;48.756;9.226;2023-02-28T16:18:34;5.10;99.90
18426;DHT22;9340;48.756;9.226;2023-02-28T16:21:02;5.10;99.90
18426;DHT22;9340;48.756;9.226;2023-02-28T16:23:29;5.00;99.90
18426;DHT22;9340;48.756;9.226;2023-02-28T16:25:55;5.00;99.90
18426;DHT22;9340;48.756;9.226;2023-02-28T16:28:25;4.90;99.90
18426;DHT22;9340;48.756;9.226;2023-02-28T16:30:55;4.80;99.90
18426;DHT22;9340;48.756;9.226;2023-02-28T16:33:21;4.70;99.90
18426;DHT22;9340;48.756;9.226;2023-02-28T16:35:48;4.70;99.90
18426;DHT22;9340;48.756;9.226;2023-02-28T16:38:16;4.60;99.90
18426;DHT22;9340;48.756;9.226;2023-02-28T16:40:43;4.50;99.90
18426;DHT22;9340;48.756;9.226;2023-02-28T16:43:15;4.50;99.90